Seeley, CA

17:33 PDT le 24 octobre 2014 (GMT -0700)
El Centro Naval Air Facility | Change Station
CLOSE
Current Station
Aéroport
Location: El Centro,
Altitude: -43 ft
Stations météo à proximité

Alt. -43 ft 32.83 °N, 115.66 °W | Updated 37 minutes ago

Ciel dégagé
Ciel dégagé
95 ° F
Paraît 95 ° F
N
0
Vent Variable Vent de Nord

Aujourd'hui
Haut(e) -- | Bas -- ° F
--% Risque de précip.
Hier
Haut(e) -- | Bas -- ° F
Precip. -- pouce
6:53 AM 5:59 PM
Nouvelle lune, 1% visible
Pression 29.90 pouce
Visibilité 10.0 Miles terrestres
Nuages Ciel dégagé
Point de rosée 45 ° F
Humidité 18%
Précipitations 0.00 pouce
Profondeur de la couche neigeuse Non disponible.
UV 1 sur 12
Pollen 6.10 sur 12
Ozone Bon
PM2.5 Moyen
Flu Activity Sporadic
METAR KNJK 242356Z 00000KT 10SM CLR 35/07 A2985 RMK AO2 SLP124 T03500072 10356 20306 56015

More Conditions Fewer Conditions

Pression 29.90 pouce
Visibilité 10.0 Miles terrestres
Nuages Ciel dégagé
Point de rosée 45 ° F
Humidité 18%
Précipitations 0.00 pouce
Profondeur de la couche neigeuse Non disponible.
UV 1 sur 12
Pollen 6.10 sur 12
Ozone Bon
PM2.5 Moyen
Flu Activity Sporadic
METAR KNJK 242356Z 00000KT 10SM CLR 35/07 A2985 RMK AO2 SLP124 T03500072 10356 20306 56015

More Conditions Fewer Conditions

10-Day Weather Forecast

Almanac

Astronomie

Oct. 24, 2014 Lever Coucher
Temps réel 06:53 PDT 17:59 PDT
Crépuscule civil 06:28 PDT 18:24 PDT
Crépuscule nautique 05:59 PDT 18:53 PDT
Crépuscule astronomique 05:31 PDT 19:22 PDT
Lune 07:35 PDT (10/24) 18:45 PDT (10/24)
Durée de lumière visible 11h 55m
Longueur du jour
11h 05m
Tomorrow will be 1m 51s shorter.
Nouvelle lune, 1% of the Moon is Illuminated
Aujourd'hui
Nouvelle lune
Oct 30
Premier quartier
Nov 6
Pleine lune
Nov 14
Dernier quartier
Nov 22
Nouveau

Extrêmes aujourd'hui

State Highs State Lows

Community

WunderPhotos

Upload Photos

1,764,727 Photos téléchargées !

WunderBlogs® & News

Nearby

Qualité de l'air

  Qualité de l'air Indice de la qualité de l'air Polluant
Hier Moyen
PM2.5
Hier Bon
OZONE
Actuel Moyen
PM2.5
Actuel Bon
OZONE

Épaisseur de neige

Station Depth Altitude
Leavitt Meadows 0 in 7200 ft
Summit Meadow 0 in 9122 ft
Echo Peak 0 in 7800 ft
Ward Creek #3 12 in 6750 ft
Adin Mountain 0 in 6200 ft

Activité sismique

Ville Distance Mag. Time & Date
Maneadero, Mexico 80 Miles terrestres 2.5 07:44 PDT
2014-10-24
San Felipe, Mexico 95 Miles terrestres 3.0 23:00 PDT
2014-10-23
Corona, California 135 Miles terrestres 2.5 13:09 PDT
2014-10-23
Alberto Oviedo Mota, Mexico 88 Miles terrestres 3.5 21:05 PDT
2014-10-21
Minimum magnitude displayed is 2.5.

Températures des eaux côtières

Lieu Température
Aucun rapport de station

Stations météo à proximité